Aeroporto :
LOGIN :

Iscrizione | Disclaimer

   EN    FR    IT 

 










Sommario :    VFR   VFR Marginale   IFR   IFR Intensivo   IFR Molto Intensivo
Visibilità : 
Base nubi : 
>= 8 km
>= 3000ft
5 / 8 km
1000 / 3000 ft
1500m / 5 km
500 / 1000 ft
800 / 1500m
200 / 500 ft
< 800m
< 200 ft
Simboli :   Temporali  Nebbia  Neve Forte  Precipitazioni Forti  Vento > 20 kt
SIGMETs :   Varie  Temporali  Ghiacco  Turbolenza  Onda orograficha  Ceneri Vulcaniche






- Altitudine del aeroporto : 26 ft
- Codice IATA : GLA


EGPF - Glasgow

ULTIMO METAR :
  • 100550Z AUTO 30008KT 9999 NCD 11/08 Q1016

METARs OBSOLETI :
  • 100520Z AUTO 30010KT 9999 NCD 11/08 Q1016
  • 100450Z AUTO 29006KT 9999 NCD 11/08 Q1015
  • 100420Z AUTO 30009KT 9999 -RA //////CB 11/08 Q1015
  • 100350Z AUTO 29006KT 9999 -RA BKN046/// //////CB 11/09 Q1015
  • 100320Z AUTO 30007KT 9999 -RA BKN047/// //////CB 11/09 Q1015

TAF TAF EGPF
Valido dal 10 a 06 ore il 11 a 06 ore UTC


100504Z 1006/1106 29009KT 9999 FEW020 BKN040
TEMPO 1006/1020 6000 SHRA
PROB30
TEMPO 1009/1014 4000 +SHRA BKN014CB
PROB30
TEMPO 1012/1018 30015G25KT
ATIS : +44 141 887 7449



MetMap, La meteo Aeronautica in un colpo d'occhio ! - Copyright ORBIFLY Dicembre 2007 - Disclaimer

ORBIFLY MET'MAP TEAM :

Programmazione e sviluppo : Alexandra Zaïnal
Concezione : Baudouin d'Aumeries
Aiuto per la programmazione : Marc-Olivier Méhu
Supporto tecnico e logistico : Manuel Goepfert
Aiuto per la traduzione : Arnaldo La Scala

Contatto : metmap@orbifly.com




FONTI E CREDITI :

   NOAA